createdAt,value
2018-08-18T00:01:24.467Z,101184.54
2018-08-18T00:03:53.465Z,101190.32
2018-08-18T00:06:22.336Z,101183.69
2018-08-18T00:08:51.269Z,101189.95
2018-08-18T00:11:20.673Z,101189.63
2018-08-18T00:13:55.702Z,101187.74
2018-08-18T00:16:26.017Z,101193.31
2018-08-18T00:18:58.491Z,101189.75
2018-08-18T00:21:29.965Z,101191.96
2018-08-18T00:24:09.689Z,101191.96
2018-08-18T00:26:38.553Z,101192.95
2018-08-18T00:29:09.005Z,101197.53
2018-08-18T00:31:40.242Z,101195.66
2018-08-18T00:34:09.093Z,101193.11
2018-08-18T00:36:38.084Z,101197.38
2018-08-18T00:39:08.817Z,101196.67
2018-08-18T00:41:38.249Z,101201.59
2018-08-18T00:44:07.999Z,101197.17
2018-08-18T00:46:36.743Z,101201.72
2018-08-18T00:49:06.105Z,101203.57
2018-08-18T00:51:41.076Z,101204.09
2018-08-18T00:54:09.925Z,101204.09
2018-08-18T00:56:43.250Z,101204.22
2018-08-18T00:59:12.233Z,101197.13
2018-08-18T01:01:41.048Z,101200.66
2018-08-18T01:04:10.021Z,101203.03
2018-08-18T01:06:41.875Z,101204.02
2018-08-18T01:09:12.392Z,101212.13
2018-08-18T01:11:41.999Z,101205.37
2018-08-18T01:14:16.608Z,101203.31
2018-08-18T01:16:50.676Z,101208.36
2018-08-18T01:19:20.928Z,101207.01
2018-08-18T01:21:56.794Z,101209.71
2018-08-18T01:24:25.942Z,101209.87
2018-08-18T01:26:54.774Z,101211.22
2018-08-18T01:29:23.576Z,101209.50
2018-08-18T01:31:53.091Z,101210.00
2018-08-18T01:34:21.899Z,101212.38
2018-08-18T01:36:50.658Z,101207.45
2018-08-18T01:39:20.851Z,101208.31
2018-08-18T01:41:49.666Z,101205.23
2018-08-18T01:44:22.005Z,101207.45
2018-08-18T01:46:52.014Z,101209.79
2018-08-18T01:49:29.789Z,101205.73
2018-08-18T01:52:00.367Z,101213.02
2018-08-18T01:54:29.289Z,101207.09
2018-08-18T01:57:03.180Z,101206.75
2018-08-18T01:59:32.030Z,101203.55
2018-08-18T02:02:00.799Z,101203.55
2018-08-18T02:04:29.662Z,101208.96
2018-08-18T02:07:19.123Z,101208.11
2018-08-18T02:09:47.939Z,101211.80
2018-08-18T02:12:16.757Z,101210.59
2018-08-18T02:14:45.604Z,101217.36
2018-08-18T02:17:25.916Z,101206.54
2018-08-18T02:19:55.158Z,101212.60
2018-08-18T02:22:24.828Z,101216.66
2018-08-18T02:24:53.676Z,101214.58
2018-08-18T02:27:22.421Z,101214.94
2018-08-18T02:30:03.054Z,101210.67
2018-08-18T02:32:37.597Z,101208.46
2018-08-18T02:35:07.152Z,101204.89
2018-08-18T02:37:36.024Z,101206.41
2018-08-18T02:40:07.245Z,101205.55
2018-08-18T02:42:35.990Z,101200.30
2018-08-18T02:45:05.390Z,101205.70
2018-08-18T02:47:34.109Z,101213.30
2018-08-18T02:50:02.981Z,101204.48
2018-08-18T02:52:34.880Z,101207.34
2018-08-18T02:55:05.000Z,101207.34
2018-08-18T02:57:35.798Z,101212.39
2018-08-18T03:00:06.900Z,101210.70
2018-08-18T03:02:35.742Z,101209.96
2018-08-18T03:05:04.639Z,101206.27
2018-08-18T03:07:39.471Z,101203.57
2018-08-18T03:10:25.471Z,101205.56
2018-08-18T03:12:59.069Z,101207.41
2018-08-18T03:16:06.594Z,101205.69
2018-08-18T03:18:47.081Z,101214.33
2018-08-18T03:21:16.166Z,101209.91
2018-08-18T03:23:56.205Z,101210.03
2018-08-18T03:26:30.143Z,101213.97
2018-08-18T03:28:58.936Z,101215.97
2018-08-18T03:31:27.867Z,101213.76
2018-08-18T03:33:56.693Z,101223.06
2018-08-18T03:36:29.987Z,101216.80
2018-08-18T03:38:59.092Z,101227.61
2018-08-18T03:41:28.678Z,101225.77
2018-08-18T03:43:58.013Z,101228.96
2018-08-18T03:46:26.831Z,101225.92
2018-08-18T03:48:55.842Z,101227.28
2018-08-18T03:51:29.084Z,101225.77
2018-08-18T03:53:58.213Z,101226.78
2018-08-18T03:56:27.013Z,101228.96
2018-08-18T03:58:57.052Z,101224.57
2018-08-18T04:01:39.760Z,101225.43
2018-08-18T04:04:09.642Z,101227.28
2018-08-18T04:06:39.532Z,101223.72
2018-08-18T04:09:15.373Z,101216.95
2018-08-18T04:11:44.173Z,101219.66
2018-08-18T04:14:13.046Z,101221.99
2018-08-18T04:16:47.516Z,101227.28
2018-08-18T04:19:18.020Z,101227.98
2018-08-18T04:21:46.993Z,101226.50
2018-08-18T04:24:16.096Z,101228.56
2018-08-18T04:26:47.083Z,101227.05
2018-08-18T04:29:15.885Z,101227.42
2018-08-18T04:31:44.626Z,101222.71
2018-08-18T04:34:13.392Z,101220.37
2018-08-18T04:36:42.146Z,101219.23
2018-08-18T04:39:13.138Z,101228.05
2018-08-18T04:41:42.639Z,101222.48
2018-08-18T04:44:11.467Z,101223.22
2018-08-18T04:46:40.178Z,101223.92
2018-08-18T04:49:08.993Z,101222.77
2018-08-18T04:51:37.844Z,101221.14
2018-08-18T04:54:06.700Z,101217.08
2018-08-18T04:56:35.480Z,101225.03
2018-08-18T04:59:04.411Z,101221.19
2018-08-18T05:01:33.245Z,101220.53
2018-08-18T05:04:08.748Z,101229.72
2018-08-18T05:06:39.195Z,101231.94
2018-08-18T05:09:09.169Z,101240.26
2018-08-18T05:11:38.112Z,101235.55
2018-08-18T05:14:06.937Z,101243.02
2018-08-18T05:16:35.745Z,101245.10
2018-08-18T05:19:04.550Z,101245.44
2018-08-18T05:21:33.298Z,101250.56
2018-08-18T05:24:17.897Z,101250.93
2018-08-18T05:26:46.623Z,101260.24
2018-08-18T05:29:15.344Z,101260.95
2018-08-18T05:31:44.167Z,101261.80
2018-08-18T05:34:13.023Z,101255.28
2018-08-18T05:36:41.950Z,101251.42
2018-08-18T05:39:10.791Z,101258.06
2018-08-18T05:42:07.650Z,101256.06
2018-08-18T05:44:47.805Z,101259.47
2018-08-18T05:47:30.267Z,101254.42
2018-08-18T05:50:04.239Z,101258.69
2018-08-18T05:52:33.093Z,101256.67
2018-08-18T05:55:16.232Z,101249.25
2018-08-18T05:57:52.792Z,101248.59
2018-08-18T06:00:23.827Z,101257.09
2018-08-18T06:02:57.918Z,101254.22
2018-08-18T06:05:39.238Z,101256.43
2018-08-18T06:08:08.268Z,101250.39
2018-08-18T06:10:37.052Z,101248.52
2018-08-18T06:13:11.914Z,101251.95
2018-08-18T06:15:42.165Z,101247.23
2018-08-18T06:18:12.005Z,101250.44
2018-08-18T06:20:40.824Z,101252.98
2018-08-18T06:26:30.130Z,101239.64
2018-08-18T06:29:00.146Z,101246.28
2018-08-18T06:32:16.968Z,101239.35
2018-08-18T06:34:45.825Z,101244.11
2018-08-18T06:37:14.650Z,101241.77
2018-08-18T06:40:16.197Z,101241.48
2018-08-18T06:42:46.068Z,101240.33
2018-08-18T06:45:21.149Z,101243.23
2018-08-18T06:47:49.996Z,101241.22
2018-08-18T06:50:21.596Z,101240.07
2018-08-18T06:52:50.810Z,101232.80
2018-08-18T06:55:21.881Z,101239.28
2018-08-18T06:57:54.954Z,101235.91
2018-08-18T07:00:25.303Z,101233.56
2018-08-18T07:02:55.607Z,101236.97
2018-08-18T07:05:24.433Z,101233.27
2018-08-18T07:07:53.341Z,101236.31
2018-08-18T07:10:33.780Z,101241.27
2018-08-18T07:13:05.947Z,101250.26
2018-08-18T07:15:36.788Z,101247.88
2018-08-18T07:18:07.207Z,101255.02
2018-08-18T07:20:36.079Z,101259.08
2018-08-18T07:23:25.681Z,101250.59
2018-08-18T07:25:59.547Z,101251.61
2018-08-18T07:28:59.061Z,101253.46
2018-08-18T07:31:27.791Z,101257.52
2018-08-18T07:33:56.695Z,101251.70
2018-08-18T07:36:25.588Z,101248.17
2018-08-18T07:38:54.438Z,101253.06
2018-08-18T07:41:24.297Z,101251.02
2018-08-18T07:47:40.252Z,101245.27
2018-08-18T07:56:46.666Z,101241.38
2018-08-18T07:59:16.024Z,101244.23
2018-08-18T08:01:45.178Z,101242.17
2018-08-18T08:04:14.077Z,101238.47
2018-08-18T08:06:43.025Z,101240.82
2018-08-18T08:09:11.779Z,101243.40
2018-08-18T08:11:40.594Z,101234.91
2018-08-18T08:14:09.825Z,101235.41
2018-08-18T08:16:49.708Z,101234.55
2018-08-18T08:19:18.609Z,101229.66
2018-08-18T08:21:47.468Z,101224.73
2018-08-18T08:25:10.221Z,101230.15
2018-08-18T08:28:05.892Z,101218.09
2018-08-18T08:30:34.767Z,101224.03
2018-08-18T08:33:03.662Z,101223.17
2018-08-18T08:35:32.549Z,101213.20
2018-08-18T08:38:01.428Z,101217.76
2018-08-18T08:40:52.875Z,101219.45
2018-08-18T08:43:35.542Z,101216.41
2018-08-18T08:46:05.467Z,101212.67
2018-08-18T08:49:05.072Z,101216.90
2018-08-18T08:51:35.882Z,101211.48
2018-08-18T08:54:04.859Z,101207.05
2018-08-18T08:56:39.298Z,101209.27
2018-08-18T08:59:08.719Z,101214.69
2018-08-18T09:01:37.532Z,101213.33
2018-08-18T09:04:07.294Z,101211.97
2018-08-18T09:06:37.593Z,101207.91
2018-08-18T09:09:13.238Z,101207.05
2018-08-18T09:11:54.312Z,101204.84
2018-08-18T09:14:29.076Z,101204.34
2018-08-18T09:16:58.415Z,101204.34
2018-08-18T09:19:27.488Z,101198.07
2018-08-18T09:22:12.092Z,101197.58
2018-08-18T09:24:41.164Z,101188.59
2018-08-18T09:27:09.934Z,101193.67
2018-08-18T09:29:46.986Z,101200.45
2018-08-18T09:32:24.416Z,101200.94
2018-08-18T09:34:53.915Z,101201.44
2018-08-18T09:37:26.045Z,101204.14
2018-08-18T09:39:55.363Z,101184.86
2018-08-18T09:42:24.658Z,101189.75
2018-08-18T09:44:54.711Z,101188.92
2018-08-18T09:47:23.760Z,101184.00
2018-08-18T09:49:54.309Z,101176.86
2018-08-18T09:52:23.108Z,101181.95
2018-08-18T09:54:51.976Z,101177.03
2018-08-18T09:57:20.878Z,101175.31
2018-08-18T09:59:49.732Z,101163.62
2018-08-18T10:02:18.909Z,101157.02
2018-08-18T10:04:47.727Z,101161.94
2018-08-18T10:07:16.554Z,101147.17
2018-08-18T10:09:48.126Z,101149.05
2018-08-18T10:12:17.540Z,101148.69
2018-08-18T10:14:46.749Z,101128.55
2018-08-18T10:17:22.504Z,101139.01
2018-08-18T10:20:03.140Z,101135.08
2018-08-18T10:22:37.658Z,101132.90
2018-08-18T10:25:11.905Z,101125.41
2018-08-18T10:27:40.804Z,101123.72
2018-08-18T10:30:09.673Z,101119.79
2018-08-18T10:32:50.664Z,101113.55
2018-08-18T10:35:36.202Z,101111.83
2018-08-18T10:38:06.982Z,101116.88
2018-08-18T10:40:36.860Z,101117.54
2018-08-18T10:43:05.753Z,101115.00
2018-08-18T10:45:34.661Z,101115.98
2018-08-18T10:48:04.537Z,101119.55
2018-08-18T10:51:48.575Z,101118.33
2018-08-18T10:54:17.777Z,101124.56
2018-08-18T10:56:47.496Z,101102.55
2018-08-18T10:59:21.165Z,101102.70
2018-08-18T11:02:05.075Z,101108.13
2018-08-18T11:04:35.310Z,101101.84
2018-08-18T11:07:04.701Z,101097.42
2018-08-18T11:09:33.924Z,101086.59
2018-08-18T11:12:03.541Z,101100.98
2018-08-18T11:14:32.447Z,101096.59
2018-08-18T11:17:02.668Z,101092.54
2018-08-18T11:19:31.525Z,101095.58
2018-08-18T11:22:11.506Z,101098.65
2018-08-18T11:24:40.276Z,101098.28
2018-08-18T11:27:21.380Z,101096.07
2018-08-18T11:29:50.516Z,101102.50
2018-08-18T11:32:29.038Z,101096.70
2018-08-18T11:35:02.170Z,101098.91
2018-08-18T11:37:31.168Z,101098.91
2018-08-18T11:40:02.724Z,101091.52
2018-08-18T11:42:31.644Z,101104.06
2018-08-18T11:45:00.536Z,101091.02
2018-08-18T11:47:29.323Z,101101.69
2018-08-18T11:49:58.214Z,101095.78
2018-08-18T11:52:27.078Z,101097.50
2018-08-18T11:54:55.979Z,101088.35
2018-08-18T11:57:24.766Z,101086.17
2018-08-18T11:59:53.569Z,101095.13
2018-08-18T12:02:40.055Z,101091.42
2018-08-18T12:05:12.492Z,101089.91
2018-08-18T12:07:41.621Z,101087.73
2018-08-18T12:10:19.690Z,101084.36
2018-08-18T12:13:00.094Z,101079.44
2018-08-18T12:19:16.867Z,101069.11
2018-08-18T12:21:50.985Z,101070.95
2018-08-18T12:25:15.171Z,101065.05
2018-08-18T12:27:44.469Z,101063.20
2018-08-18T12:30:24.961Z,101067.63
2018-08-18T12:33:23.379Z,101054.58
2018-08-18T12:36:17.871Z,101048.67
2018-08-18T12:38:55.402Z,101055.94
2018-08-18T12:41:55.856Z,101042.89
2018-08-18T12:44:31.377Z,101046.09
2018-08-18T12:47:17.091Z,101046.09
2018-08-18T12:49:46.810Z,101039.83
2018-08-18T12:58:20.792Z,100950.49
2018-08-18T13:00:50.751Z,101022.77
2018-08-18T13:03:32.267Z,101009.72
2018-08-18T13:06:04.081Z,101018.33
2018-08-18T13:08:33.260Z,101016.48
2018-08-18T13:11:07.257Z,101018.33
2018-08-18T13:13:36.172Z,101003.94
2018-08-18T13:16:05.058Z,100996.84
2018-08-18T13:18:34.661Z,100993.28
2018-08-18T13:21:03.406Z,100996.48
2018-08-18T13:23:32.163Z,100996.98
2018-08-18T13:26:04.178Z,100996.13
2018-08-18T13:28:44.129Z,100995.80
2018-08-18T13:31:13.016Z,100992.23
2018-08-18T13:36:33.173Z,100984.27
2018-08-18T13:39:03.280Z,100977.51
2018-08-18T13:41:40.399Z,100982.53
2018-08-18T13:44:09.315Z,100977.28
2018-08-18T13:46:51.798Z,100973.55
2018-08-18T13:49:26.779Z,100974.58
2018-08-18T13:51:56.938Z,100972.69
2018-08-18T13:54:25.685Z,100976.75
2018-08-18T13:56:54.533Z,100967.28
2018-08-18T14:02:18.943Z,100970.84
2018-08-18T14:04:47.732Z,100967.80
2018-08-18T14:07:16.640Z,100960.02
2018-08-18T14:10:06.141Z,100966.45
2018-08-18T14:12:34.942Z,100962.39
2018-08-18T14:15:03.784Z,100965.59
2018-08-18T14:17:32.671Z,100973.72
2018-08-18T14:20:01.667Z,100977.28
2018-08-18T14:22:30.460Z,100976.42
2018-08-18T14:24:59.427Z,100968.80
2018-08-18T14:27:28.342Z,100966.95
2018-08-18T14:29:57.291Z,100972.00
2018-08-18T14:32:28.161Z,100966.59
2018-08-18T14:35:12.419Z,100965.73
2018-08-18T14:37:42.620Z,100958.63
2018-08-18T14:40:15.785Z,100955.43
2018-08-18T14:42:45.411Z,100953.22
2018-08-18T14:45:15.580Z,100948.99
2018-08-18T14:47:44.920Z,100942.72
2018-08-18T14:50:19.739Z,100935.63
2018-08-18T14:52:48.605Z,100945.43
2018-08-18T14:58:02.808Z,100935.96
2018-08-18T15:00:32.162Z,100926.48
2018-08-18T15:03:09.402Z,100934.11
2018-08-18T15:05:43.970Z,100928.20
2018-08-18T15:08:24.634Z,100925.66
2018-08-18T15:10:53.990Z,100918.37
2018-08-18T15:13:22.811Z,100915.66
2018-08-18T15:15:51.738Z,100910.77
2018-08-18T15:18:22.630Z,100909.92
2018-08-18T15:20:51.378Z,100910.77
2018-08-18T15:23:20.169Z,100904.51
2018-08-18T15:25:58.075Z,100897.87
2018-08-18T15:28:45.496Z,100901.44
2018-08-18T15:31:19.198Z,100896.20
2018-08-18T15:34:05.870Z,100894.31
2018-08-18T15:36:52.589Z,100893.12
2018-08-18T15:39:23.760Z,100890.92
2018-08-18T15:41:55.131Z,100890.59
2018-08-18T15:44:24.133Z,100883.46
2018-08-18T15:46:53.014Z,100883.46
2018-08-18T15:49:21.832Z,100879.90
2018-08-18T15:51:50.814Z,100874.48
2018-08-18T15:54:19.719Z,100873.63
2018-08-18T15:56:48.506Z,100880.92
2018-08-18T15:59:17.283Z,100880.92
2018-08-18T16:01:46.098Z,100877.36
2018-08-18T16:04:21.752Z,100872.94
2018-08-18T16:06:50.906Z,100874.79
2018-08-18T16:09:26.185Z,100866.67
2018-08-18T16:11:55.014Z,100864.99
2018-08-18T16:14:28.240Z,100867.34
2018-08-18T16:17:01.085Z,100858.72
2018-08-18T16:19:39.490Z,100858.03
2018-08-18T16:22:11.968Z,100860.74
2018-08-18T16:24:46.200Z,100860.74
2018-08-18T16:27:21.975Z,100859.88
2018-08-18T16:29:53.696Z,100857.67
2018-08-18T16:32:25.280Z,100849.55
2018-08-18T16:35:10.006Z,100847.34
2018-08-18T16:37:41.770Z,100841.94
2018-08-18T16:40:10.659Z,100828.94
2018-08-18T16:42:45.558Z,100832.47
2018-08-18T16:45:14.961Z,100830.78
2018-08-18T16:47:52.872Z,100826.23
2018-08-18T16:50:22.417Z,100824.52
2018-08-18T16:52:52.253Z,100832.63
2018-08-18T16:55:21.223Z,100824.52
2018-08-18T16:57:49.980Z,100822.30
2018-08-18T17:00:18.925Z,100815.91
2018-08-18T17:02:47.733Z,100810.00
2018-08-18T17:05:16.591Z,100814.55
2018-08-18T17:07:45.677Z,100810.13
2018-08-18T17:10:14.713Z,100809.64
2018-08-18T17:12:43.584Z,100808.64
2018-08-18T17:15:12.473Z,100813.70
2018-08-18T17:17:41.340Z,100811.84
2018-08-18T17:20:10.663Z,100813.20
2018-08-18T17:22:39.507Z,100811.48
2018-08-18T17:25:09.556Z,100813.70
2018-08-18T17:27:38.356Z,100815.55
2018-08-18T17:30:07.518Z,100809.28
2018-08-18T17:32:36.341Z,100808.78
2018-08-18T17:35:13.249Z,100808.95
2018-08-18T17:38:12.752Z,100810.63
2018-08-18T17:40:41.974Z,100808.95
2018-08-18T17:43:10.761Z,100811.79
2018-08-18T17:45:44.699Z,100811.30
2018-08-18T17:48:13.586Z,100815.84
2018-08-18T17:51:22.466Z,100816.87
2018-08-18T17:54:05.422Z,100741.66
2018-08-18T17:56:34.417Z,100808.89
2018-08-18T17:59:03.300Z,100807.54
2018-08-18T18:01:32.253Z,100814.80
2018-08-18T18:04:01.032Z,100816.69
2018-08-18T18:06:29.912Z,100819.39
2018-08-18T18:08:58.837Z,100820.37
2018-08-18T18:11:27.903Z,100824.80
2018-08-18T18:13:56.805Z,100825.30
2018-08-18T18:16:27.950Z,100811.41
2018-08-18T18:19:08.429Z,100815.96
2018-08-18T18:21:37.245Z,100820.02
2018-08-18T18:27:12.043Z,100815.13
2018-08-18T18:29:49.509Z,100809.86
2018-08-18T18:32:18.248Z,100813.06
2018-08-18T18:34:48.035Z,100803.77
2018-08-18T18:37:23.008Z,100812.38
2018-08-18T18:43:02.827Z,100802.58
2018-08-18T18:45:31.642Z,100803.07
2018-08-18T18:48:00.626Z,100806.77
2018-08-18T18:50:29.687Z,100804.56
2018-08-18T18:52:58.544Z,100801.36
2018-08-18T18:55:33.123Z,100814.02
2018-08-18T18:58:18.299Z,100797.80
2018-08-18T19:01:02.284Z,100799.32
2018-08-18T19:03:31.308Z,100799.32
2018-08-18T19:06:00.204Z,100801.53
2018-08-18T19:08:29.138Z,100790.34
2018-08-18T19:11:06.622Z,100784.94
2018-08-18T19:13:35.729Z,100774.98
2018-08-18T19:16:04.593Z,100784.44
2018-08-18T19:18:33.569Z,100779.03
2018-08-18T19:21:09.864Z,100774.12
2018-08-18T19:23:39.906Z,100774.48
2018-08-18T19:26:08.696Z,100772.27
2018-08-18T19:28:42.997Z,100765.52
2018-08-18T19:31:36.036Z,100763.66
2018-08-18T19:34:12.253Z,100765.52
2018-08-18T19:36:54.023Z,100763.80
2018-08-18T19:39:42.525Z,100762.44
2018-08-18T19:42:18.390Z,100766.17
2018-08-18T19:45:06.456Z,100766.50
2018-08-18T19:47:38.142Z,100758.56
2018-08-18T19:50:08.113Z,100761.59
2018-08-18T19:52:36.953Z,100755.36
2018-08-18T19:55:05.981Z,100751.63
2018-08-18T20:00:42.154Z,100754.33
2018-08-18T20:03:36.200Z,100744.53
2018-08-18T20:06:38.609Z,100747.56
2018-08-18T20:09:11.641Z,100740.98
2018-08-18T20:11:41.431Z,100747.24
2018-08-18T20:14:21.005Z,100735.56
2018-08-18T20:16:50.070Z,100739.63
2018-08-18T20:19:18.835Z,100738.77
2018-08-18T20:21:52.564Z,100732.00
2018-08-18T20:24:21.690Z,100739.13
2018-08-18T20:26:50.564Z,100730.66
2018-08-18T20:29:31.167Z,100728.80
2018-08-18T20:32:10.125Z,100731.02
2018-08-18T20:34:38.954Z,100727.45
2018-08-18T20:37:07.790Z,100730.66
2018-08-18T20:39:36.566Z,100723.03
2018-08-18T20:42:14.694Z,100727.59
2018-08-18T20:44:43.761Z,100727.27
2018-08-18T20:47:12.600Z,100725.41
2018-08-18T20:49:41.483Z,100729.47
2018-08-18T20:52:10.992Z,100733.17
2018-08-18T20:54:55.731Z,100728.62
2018-08-18T20:57:37.720Z,100714.73
2018-08-18T21:00:12.492Z,100718.46
2018-08-18T21:02:44.338Z,100718.46
2018-08-18T21:05:13.133Z,100722.16
2018-08-18T21:07:42.099Z,100724.37
2018-08-18T21:10:12.300Z,100716.39
2018-08-18T21:12:48.454Z,100710.48
2018-08-18T21:15:18.642Z,100709.30
2018-08-18T21:17:47.504Z,100715.56
2018-08-18T21:20:23.051Z,100710.16
2018-08-18T21:22:57.630Z,100710.30
2018-08-18T21:25:40.421Z,100704.56
2018-08-18T21:28:16.785Z,100699.15
2018-08-18T21:30:45.550Z,100704.20
2018-08-18T21:33:14.334Z,100703.21
2018-08-18T21:35:44.228Z,100701.50
2018-08-18T21:38:13.108Z,100701.14
2018-08-18T21:40:44.737Z,100697.58
2018-08-18T21:43:24.579Z,100691.34
2018-08-18T21:45:53.888Z,100687.78
2018-08-18T21:48:34.857Z,100688.64
2018-08-18T21:51:08.562Z,100690.48
2018-08-18T21:53:45.411Z,100684.72
2018-08-18T21:57:34.941Z,100683.73
2018-08-18T22:00:04.177Z,100681.69
2018-08-18T22:02:41.191Z,100687.59
2018-08-18T22:05:11.756Z,100684.53
2018-08-18T22:07:57.484Z,100669.16
2018-08-18T22:11:03.465Z,100680.84
2018-08-18T22:16:54.186Z,100673.72
2018-08-18T22:19:23.181Z,100669.97
2018-08-18T22:21:52.135Z,100678.63
2018-08-18T22:24:36.901Z,100671.87
2018-08-18T22:27:14.984Z,100676.78
2018-08-18T22:29:43.926Z,100682.52
2018-08-18T22:32:26.024Z,100681.52
2018-08-18T22:34:54.844Z,100679.18
2018-08-18T22:37:25.715Z,100671.89
2018-08-18T22:39:54.803Z,100680.36
2018-08-18T22:42:25.525Z,100673.95
2018-08-18T22:44:54.325Z,100677.84
2018-08-18T22:47:24.631Z,100667.88
2018-08-18T22:49:54.648Z,100667.39
2018-08-18T22:52:23.634Z,100668.07
2018-08-18T22:54:53.640Z,100663.52
2018-08-18T22:57:34.124Z,100679.58
2018-08-18T23:00:03.042Z,100673.67
2018-08-18T23:02:46.338Z,100668.63
2018-08-18T23:05:17.595Z,100669.97
2018-08-18T23:07:51.077Z,100664.39
2018-08-18T23:10:23.760Z,100670.16
2018-08-18T23:13:05.641Z,100669.13
2018-08-18T23:15:34.611Z,100664.22
2018-08-18T23:18:03.767Z,100659.17
2018-08-18T23:20:34.317Z,100664.09
2018-08-18T23:23:03.178Z,100657.64
2018-08-18T23:26:07.554Z,100664.41
2018-08-18T23:31:49.471Z,100657.64
2018-08-18T23:34:18.337Z,100656.30
2018-08-18T23:36:47.115Z,100658.00
2018-08-18T23:39:49.299Z,100645.48
2018-08-18T23:42:20.596Z,100641.78
2018-08-18T23:45:02.437Z,100645.34
2018-08-18T23:50:23.368Z,100639.75
2018-08-18T23:55:52.466Z,100636.55
2018-08-18T23:58:23.712Z,100631.14
